Nashville, Arkansas
Current Conditions -  °F | °C
As of 6:53 PM on Friday 19 Dec 2014 (Local Time) from KDEQ Reporting Station
Haze Haze  
Wind Chill: 45°   Ceiling: 2500
Heat Index: 45°   Visibility: 6mi
Dew Point: 43°   Wind: 3mph
Humidity: 93%   Direction: 70°ENE
Pressure: 30.2"   Gusts: NA
Location:  33.95°N, 93.85°W
Report Text: KDEQ 200053Z AUTO 07003KT 6SM BR FEW014 OVC025 07/06 A3020 RMK AO2 SLP226 T00720061
Loading
Personal Weather Stations






























Interactive Weather Map New forecast layout! Learn more

10-Day Weather Forecast

Advertisements
Track Severe Weather on mobile